Tuesday, September 16, 2014
03:03 UTC
  |  Log In   |  Register Free
Airport Search:

Chanute Martin Johnson Airport
(KCNU)

Chanute Martin Johnson Airport Diagram
No Airport Diagram Available

FAA data valid effective July 24, 2014 until September 18, 2014 (unless otherwise noted).

 
 
 
 
 
 
 
 
 
 
 
 
 
 

Current Aviation Weather for Chanute Martin Johnson Airport (KCNU)

The most recent METAR observation for KCNU was updated at: 0208
METAR Summary (Translated METAR)
KCNU
160152Z AUTO 03009KT 10SM FEW020 OVC050 20/16 A3017 RMK AO2 SLP208 T02000156
KPPF
160152Z AUTO 03005KT 10SM SCT055 BKN070 OVC085 21/17 A3017 RMK AO2 SLP209 T02060167
(20.3 nm SW from KCNU)
KIDP
160155Z AUTO 03009KT 10SM SCT048 OVC055 20/17 A3015 RMK AO2
(33.7 nm SW from KCNU)
TAF Summary (Translated TAF)
KCNU
152032Z 1521/1618 01013KT P6SM VCTS SCT040CB BKN080 TEMPO 1521/1523 5SM -TSRA BR BKN040CB FM160100 03011KT P6SM VCSH OVC025 FM160700 06009KT P6SM BKN025
  Airport Weather Conditions for KCNU

 Current Weather at CNU
68° F
Overcast
Northeast winds at 10.4 mph
CNU NOAA Radar

Pressure: 30.17 in
Humidity: 76%
Wind: Northeast at 10.4 MPH (9 KT)
Dew Point: 60.1°F
Visibility: 10.00 mi


Airport Weather Forecast for KCNU

Translated METAR and TAF for KCNU
Translated METAR for KCNU (0257 UTC 16 September 2014)
found at http://aviationweather.gov/adds/metars/
 
METAR text: KCNU 160252Z AUTO 03009KT 10SM OVC055 20/15 A3019 RMK AO2 SLP214 T02000150 53019
Conditions at: KCNU (CHANUTE , KS, US) observed 0252 UTC 16 September 2014
Temperature: 20.0°C (68°F)
Dewpoint: 15.0°C (59°F) [RH = 73%]
Pressure (altimeter): 30.19 inches Hg (1022.4 mb)
[Sea-level pressure: 1021.4 mb]
Winds: from the NNE (30 degrees) at 10 MPH (9 knots; 4.7 m/s)
Visibility: 10 or more miles (16+ km)
Ceiling: 5500 feet AGL
Clouds: overcast cloud deck at 5500 feet AGL
Weather: automated observation with no human augmentation;
there may or may not be significant weather present at this time
Translated TAF for KCNU
Forecast for: KCNU (CHANUTE , KS, US)
TAF Text: KCNU 152322Z 1600/1624 02010KT P6SM VCSH SCT025 BKN060
Forecast period: 0000 to 0600 UTC 16 September 2014
Forecast type: FROM: standard forecast or significant change
Winds: from the NNE (20 degrees) at 12 MPH (10 knots; 5.2 m/s)
Visibility: 6 or more miles (10+ km)
Ceiling: 6000 feet AGL
Clouds: scattered clouds at 2500 feet AGL
broken clouds at 6000 feet AGL
Weather: VCSH  (showers in vicinity)
TAF Text: TEMPO 1602/1606 BKN025
Forecast period: 0200 to 0600 UTC 16 September 2014
Forecast type: TEMPORARY: The following changes expected for less than half the time period
Ceiling: 2500 feet AGL
Clouds: broken clouds at 2500 feet AGL
Weather: no significant weather forecast for this period
TAF Text: FM160600 05007KT P6SM BKN020
Forecast period: 0600 to 1400 UTC 16 September 2014
Forecast type: FROM: standard forecast or significant change
Winds: from the NE (50 degrees) at 8 MPH (7 knots; 3.6 m/s)
Visibility: 6 or more miles (10+ km)
Ceiling: 2000 feet AGL
Clouds: broken clouds at 2000 feet AGL
Weather: no significant weather forecast for this period
TAF Text: FM161400 10006KT P6SM SCT035
Forecast period: 1400 UTC 16 September 2014 to 0000 UTC 17 September 2014
Forecast type: FROM: standard forecast or significant change
Winds: from the E (100 degrees) at 7 MPH (6 knots; 3.1 m/s)
Visibility: 6 or more miles (10+ km)
Clouds: scattered clouds at 3500 feet AGL
Weather: no significant weather forecast for this period
TAF Text: TEMPO 1614/1616 BKN025
Forecast period: 1400 to 1600 UTC 16 September 2014
Forecast type: TEMPORARY: The following changes expected for less than half the time period
Ceiling: 2500 feet AGL
Clouds: broken clouds at 2500 feet AGL
Weather: no significant weather forecast for this period

Find All Airport Services Find A Hotel Find A Rental Car Find A Golf Course Find A Restaurant $100 Hamburger



FBO's on the Field
FBO Company Facility Photos Services Transportation Aviation Fuel Prices: Prices include tax
Catering Weather Repair Courtesy Rental Type 100LL JetA JetA+ MOGAS 8087
 
City of Chanute

This FBO has not yet been rated
FS:Phillips66
Last Updated: Aug-22
Login to update fuel prices
SS:
Contact City of ChanuteMore FBO Information
 
Add another FBO Facility Photos Catering Weather Repair Courtesy Rental Type 100LL JetA JetA+ MOGAS 8087
Services Transportation Aviation Fuel Prices: Prices include tax


model-print
model-print
model-print
model-print